createdAt,value
2023-03-19T00:00:31.591Z,17.27
2023-03-19T00:02:58.501Z,17.52
2023-03-19T00:05:25.470Z,18.42
2023-03-19T00:07:52.231Z,18.25
2023-03-19T00:10:19.004Z,18.00
2023-03-19T00:12:45.774Z,17.23
2023-03-19T00:15:14.574Z,17.95
2023-03-19T00:17:43.013Z,16.83
2023-03-19T00:20:11.781Z,16.85
2023-03-19T00:22:39.696Z,17.88
2023-03-19T00:25:08.183Z,16.30
2023-03-19T00:27:35.437Z,16.83
2023-03-19T00:30:02.611Z,16.95
2023-03-19T00:32:30.119Z,18.45
2023-03-19T00:34:57.401Z,18.00
2023-03-19T00:37:24.165Z,17.13
2023-03-19T00:39:51.194Z,18.80
2023-03-19T00:42:18.092Z,19.02
2023-03-19T00:44:44.860Z,18.52
2023-03-19T00:47:12.338Z,19.65
2023-03-19T00:49:39.061Z,18.98
2023-03-19T00:52:05.810Z,19.27
2023-03-19T00:54:33.121Z,19.33
2023-03-19T00:57:00.148Z,19.45
2023-03-19T00:59:27.278Z,18.33
2023-03-19T01:01:54.014Z,19.23
2023-03-19T01:04:20.753Z,19.70
2023-03-19T01:06:47.541Z,19.65
2023-03-19T01:09:14.440Z,19.13
2023-03-19T01:11:41.190Z,19.67
2023-03-19T01:14:08.350Z,19.20
2023-03-19T01:16:35.694Z,20.42
2023-03-19T01:19:03.618Z,21.08
2023-03-19T01:21:34.005Z,21.48
2023-03-19T01:24:00.994Z,21.00
2023-03-19T01:26:28.102Z,21.67
2023-03-19T01:28:54.918Z,21.92
2023-03-19T01:31:22.073Z,22.00
2023-03-19T01:33:48.862Z,22.50
2023-03-19T01:36:15.596Z,23.65
2023-03-19T01:38:42.699Z,21.75
2023-03-19T01:41:09.738Z,22.65
2023-03-19T01:43:36.689Z,22.35
2023-03-19T01:46:15.773Z,22.20
2023-03-19T01:48:44.832Z,22.65
2023-03-19T01:51:14.344Z,22.88
2023-03-19T01:53:47.583Z,21.73
2023-03-19T01:56:33.995Z,21.25
2023-03-19T01:59:20.348Z,22.05
2023-03-19T02:01:56.983Z,21.33
2023-03-19T02:04:26.789Z,21.83
2023-03-19T02:06:56.635Z,20.83
2023-03-19T02:09:26.133Z,20.52
2023-03-19T02:11:54.553Z,20.17
2023-03-19T02:14:21.500Z,19.42
2023-03-19T02:16:48.697Z,19.73
2023-03-19T02:19:47.063Z,19.30
2023-03-19T02:22:16.578Z,19.42
2023-03-19T02:24:59.783Z,19.02
2023-03-19T02:27:26.561Z,17.88
2023-03-19T02:29:53.277Z,17.17
2023-03-19T02:32:20.017Z,16.25
2023-03-19T02:34:46.811Z,15.77
2023-03-19T02:37:17.142Z,14.50
2023-03-19T02:39:49.709Z,16.02
2023-03-19T02:42:18.621Z,15.32
2023-03-19T02:44:46.202Z,18.60
2023-03-19T02:47:13.138Z,17.92
2023-03-19T02:49:39.917Z,19.98
2023-03-19T02:52:06.994Z,18.50
2023-03-19T02:54:33.775Z,18.83
2023-03-19T02:57:01.068Z,20.00
2023-03-19T02:59:27.842Z,20.15
2023-03-19T03:01:54.593Z,21.13
2023-03-19T03:04:21.869Z,21.10
2023-03-19T03:06:48.592Z,23.48
2023-03-19T03:09:15.301Z,22.83
2023-03-19T03:11:42.261Z,22.40
2023-03-19T03:14:09.304Z,22.75
2023-03-19T03:16:37.734Z,22.50
2023-03-19T03:19:05.201Z,22.92
2023-03-19T03:21:34.358Z,23.75
2023-03-19T03:24:02.101Z,22.70
2023-03-19T03:26:28.825Z,24.25
2023-03-19T03:28:55.640Z,24.67
2023-03-19T03:31:22.702Z,27.33
2023-03-19T03:33:50.312Z,27.95
2023-03-19T03:36:17.587Z,28.65
2023-03-19T03:38:45.144Z,27.85
2023-03-19T03:41:11.901Z,28.58
2023-03-19T03:43:39.475Z,28.52
2023-03-19T03:46:07.569Z,28.77
2023-03-19T03:48:35.260Z,34.97
2023-03-19T03:51:03.267Z,39.50
2023-03-19T03:53:30.095Z,32.95
2023-03-19T03:55:57.057Z,30.67
2023-03-19T03:58:24.095Z,31.25
2023-03-19T04:00:51.072Z,32.72
2023-03-19T04:03:18.226Z,34.75
2023-03-19T04:05:45.182Z,34.83
2023-03-19T04:08:12.777Z,34.35
2023-03-19T04:10:40.771Z,36.00
2023-03-19T04:13:07.572Z,36.83
2023-03-19T04:15:34.804Z,36.30
2023-03-19T04:18:01.936Z,36.60
2023-03-19T04:20:29.101Z,37.45
2023-03-19T04:22:56.238Z,38.30
2023-03-19T04:25:23.052Z,35.88
2023-03-19T04:27:49.722Z,37.05
2023-03-19T04:30:16.567Z,34.90
2023-03-19T04:32:44.422Z,33.63
2023-03-19T04:35:11.212Z,33.28
2023-03-19T04:37:38.117Z,33.17
2023-03-19T04:40:05.899Z,34.28
2023-03-19T04:42:33.058Z,31.98
2023-03-19T04:44:59.811Z,33.80
2023-03-19T04:47:26.539Z,35.85
2023-03-19T04:49:53.270Z,33.05
2023-03-19T04:52:19.999Z,33.78
2023-03-19T04:54:46.719Z,31.48
2023-03-19T04:57:13.529Z,29.60
2023-03-19T04:59:40.254Z,30.70
2023-03-19T05:02:07.241Z,30.33
2023-03-19T05:04:34.054Z,31.77
2023-03-19T05:07:01.117Z,31.17
2023-03-19T05:09:27.941Z,32.78
2023-03-19T05:11:54.633Z,34.15
2023-03-19T05:14:21.379Z,32.58
2023-03-19T05:16:48.135Z,29.98
2023-03-19T05:19:14.863Z,30.20
2023-03-19T05:21:41.595Z,30.83
2023-03-19T05:24:08.463Z,33.13
2023-03-19T05:26:35.207Z,32.75
2023-03-19T05:29:01.926Z,33.97
2023-03-19T05:31:28.696Z,34.30
2023-03-19T05:33:55.425Z,34.53
2023-03-19T05:36:24.000Z,34.95
2023-03-19T05:38:50.698Z,34.92
2023-03-19T05:41:17.896Z,36.95
2023-03-19T05:43:44.696Z,36.83
2023-03-19T05:46:11.514Z,37.00
2023-03-19T05:48:38.300Z,37.63
2023-03-19T05:51:05.269Z,40.63
2023-03-19T05:53:32.135Z,39.85
2023-03-19T05:55:58.886Z,39.47
2023-03-19T05:58:26.068Z,38.90
2023-03-19T06:00:57.763Z,40.42
2023-03-19T06:05:52.388Z,38.17
2023-03-19T06:08:20.081Z,40.10
2023-03-19T06:10:47.126Z,42.47
2023-03-19T06:13:13.907Z,41.53
2023-03-19T06:15:40.982Z,41.25
2023-03-19T06:18:08.625Z,40.25
2023-03-19T06:20:35.570Z,41.20
2023-03-19T06:23:02.610Z,43.05
2023-03-19T06:25:29.327Z,42.13
2023-03-19T06:27:56.169Z,39.60
2023-03-19T06:30:22.948Z,37.58
2023-03-19T06:32:50.113Z,39.53
2023-03-19T06:35:16.990Z,40.42
2023-03-19T06:37:43.815Z,40.40
2023-03-19T06:40:11.349Z,39.72
2023-03-19T06:42:38.108Z,40.30
2023-03-19T06:45:06.475Z,38.35
2023-03-19T06:47:33.271Z,38.42
2023-03-19T06:50:00.958Z,39.13
2023-03-19T06:52:27.734Z,37.65
2023-03-19T06:54:54.467Z,37.92
2023-03-19T06:57:21.318Z,36.80
2023-03-19T06:59:47.977Z,37.22
2023-03-19T07:02:15.301Z,38.03
2023-03-19T07:04:42.021Z,37.20
2023-03-19T07:07:08.776Z,37.38
2023-03-19T07:09:35.636Z,36.53
2023-03-19T07:12:02.476Z,35.83
2023-03-19T07:14:29.191Z,35.10
2023-03-19T07:16:55.895Z,35.38
2023-03-19T07:19:23.083Z,35.65
2023-03-19T07:21:49.789Z,34.95
2023-03-19T07:24:16.535Z,37.15
2023-03-19T07:26:44.021Z,35.35
2023-03-19T07:29:11.149Z,34.67
2023-03-19T07:31:37.842Z,35.08
2023-03-19T07:34:04.631Z,36.92
2023-03-19T07:36:31.674Z,34.67
2023-03-19T07:38:58.505Z,34.92
2023-03-19T07:41:25.814Z,32.85
2023-03-19T07:43:52.493Z,34.22
2023-03-19T07:46:19.270Z,35.28
2023-03-19T07:48:46.577Z,37.25
2023-03-19T07:51:13.316Z,36.97
2023-03-19T07:53:39.975Z,36.03
2023-03-19T07:56:07.170Z,37.17
2023-03-19T07:58:33.977Z,38.30
2023-03-19T08:01:00.680Z,39.13
2023-03-19T08:03:27.365Z,37.47
2023-03-19T08:05:54.125Z,40.65
2023-03-19T08:08:20.875Z,40.42
2023-03-19T08:10:48.180Z,41.85
2023-03-19T08:13:14.939Z,41.13
2023-03-19T08:15:41.739Z,42.60
2023-03-19T08:18:09.016Z,41.72
2023-03-19T08:20:36.192Z,43.80
2023-03-19T08:23:03.509Z,43.53
2023-03-19T08:25:32.569Z,42.53
2023-03-19T08:28:00.933Z,43.35
2023-03-19T08:30:27.893Z,40.30
2023-03-19T08:32:54.788Z,42.55
2023-03-19T08:35:21.592Z,40.67
2023-03-19T08:37:48.333Z,41.90
2023-03-19T08:40:15.253Z,41.03
2023-03-19T08:42:45.078Z,44.33
2023-03-19T08:45:13.826Z,41.60
2023-03-19T08:47:41.735Z,41.30
2023-03-19T08:50:09.426Z,40.97
2023-03-19T08:52:36.377Z,39.08
2023-03-19T08:55:03.642Z,39.00
2023-03-19T08:57:32.230Z,37.80
2023-03-19T08:59:59.196Z,36.55
2023-03-19T09:02:25.976Z,37.85
2023-03-19T09:04:52.769Z,34.90
2023-03-19T09:07:19.694Z,33.63
2023-03-19T09:09:46.463Z,32.10
2023-03-19T09:12:16.823Z,29.77
2023-03-19T09:14:44.068Z,24.98
2023-03-19T09:17:11.581Z,25.58
2023-03-19T09:19:38.431Z,26.58
2023-03-19T09:22:06.373Z,26.02
2023-03-19T09:24:33.100Z,24.15
2023-03-19T09:26:59.815Z,24.17
2023-03-19T09:29:26.559Z,22.70
2023-03-19T09:31:53.270Z,24.60
2023-03-19T09:34:20.016Z,23.90
2023-03-19T09:36:46.735Z,23.13
2023-03-19T09:39:13.533Z,22.73
2023-03-19T09:42:05.962Z,23.77
2023-03-19T09:44:39.576Z,24.55
2023-03-19T09:47:31.316Z,24.55
2023-03-19T09:50:05.247Z,25.95
2023-03-19T09:52:34.763Z,26.05
2023-03-19T09:55:24.166Z,27.40
2023-03-19T09:57:55.516Z,27.00
2023-03-19T10:00:30.104Z,27.88
2023-03-19T10:03:19.804Z,28.65
2023-03-19T10:06:01.045Z,29.85
2023-03-19T10:08:45.075Z,30.45
2023-03-19T10:11:50.472Z,29.48
2023-03-19T10:14:17.263Z,31.70
2023-03-19T10:16:48.729Z,30.90
2023-03-19T10:19:22.132Z,30.55
2023-03-19T10:21:57.419Z,30.65
2023-03-19T10:24:33.209Z,30.00
2023-03-19T10:27:09.168Z,30.88
2023-03-19T10:29:36.770Z,31.45
2023-03-19T10:32:42.146Z,28.10
2023-03-19T10:35:19.601Z,28.25
2023-03-19T10:37:47.977Z,29.58
2023-03-19T10:41:07.515Z,30.38
2023-03-19T10:43:35.045Z,30.67
2023-03-19T10:46:01.871Z,31.40
2023-03-19T10:48:29.259Z,33.13
2023-03-19T10:51:04.529Z,31.65
2023-03-19T10:53:33.642Z,31.33
2023-03-19T10:56:17.801Z,30.15
2023-03-19T10:59:04.140Z,30.67
2023-03-19T11:01:40.090Z,28.40
2023-03-19T11:04:18.690Z,30.02
2023-03-19T11:06:56.655Z,31.05
2023-03-19T11:09:35.770Z,30.35
2023-03-19T11:12:20.477Z,30.00
2023-03-19T11:15:23.482Z,31.77
2023-03-19T11:17:57.717Z,30.88
2023-03-19T11:20:38.463Z,31.58
2023-03-19T11:23:19.317Z,31.67
2023-03-19T11:25:54.270Z,30.88
2023-03-19T11:28:26.403Z,32.92
2023-03-19T11:31:05.621Z,32.67
2023-03-19T11:33:50.309Z,32.05
2023-03-19T11:36:33.771Z,31.08
2023-03-19T11:39:15.692Z,32.38
2023-03-19T11:42:01.252Z,33.45
2023-03-19T11:44:46.677Z,33.40
2023-03-19T11:47:27.491Z,35.10
2023-03-19T11:50:01.080Z,33.40
2023-03-19T11:52:30.926Z,33.58
2023-03-19T11:55:08.969Z,32.33
2023-03-19T11:57:57.777Z,34.08
2023-03-19T12:00:45.370Z,33.58
2023-03-19T12:03:41.063Z,34.63
2023-03-19T12:06:25.082Z,35.65
2023-03-19T12:09:00.685Z,34.75
2023-03-19T12:11:42.487Z,32.20
2023-03-19T12:17:20.804Z,33.55
2023-03-19T12:20:12.469Z,32.22
2023-03-19T12:23:30.017Z,32.15
2023-03-19T12:25:59.627Z,30.92
2023-03-19T12:28:31.850Z,32.05
2023-03-19T12:31:17.516Z,33.05
2023-03-19T12:34:15.005Z,30.15
2023-03-19T12:36:52.076Z,22.80
2023-03-19T12:39:24.336Z,25.52
2023-03-19T12:41:53.367Z,22.85
2023-03-19T12:44:34.741Z,22.77
2023-03-19T12:47:04.349Z,21.77
2023-03-19T12:49:42.802Z,18.95
2023-03-19T12:52:26.687Z,19.92
2023-03-19T12:55:18.508Z,16.17
2023-03-19T12:57:45.250Z,16.38
2023-03-19T13:00:35.820Z,16.50
2023-03-19T13:03:25.961Z,17.58
2023-03-19T13:05:59.562Z,18.05
2023-03-19T13:08:37.722Z,20.83
2023-03-19T13:11:12.623Z,19.55
2023-03-19T13:13:42.942Z,19.95
2023-03-19T13:16:30.929Z,18.75
2023-03-19T13:19:18.164Z,19.77
2023-03-19T13:21:48.652Z,20.83
2023-03-19T13:24:29.740Z,20.13
2023-03-19T13:27:00.641Z,18.63
2023-03-19T13:29:30.444Z,16.48
2023-03-19T13:32:02.520Z,16.35
2023-03-19T13:34:33.921Z,16.10
2023-03-19T13:37:18.452Z,15.93
2023-03-19T13:39:48.440Z,14.52
2023-03-19T13:42:24.279Z,17.15
2023-03-19T13:45:03.552Z,17.00
2023-03-19T13:47:32.559Z,16.63
2023-03-19T13:50:20.488Z,19.65
2023-03-19T13:52:51.227Z,18.85
2023-03-19T13:55:44.607Z,18.02
2023-03-19T13:58:37.281Z,18.42
2023-03-19T14:01:10.622Z,17.60
2023-03-19T14:03:40.818Z,18.70
2023-03-19T14:06:33.329Z,19.27
2023-03-19T14:09:00.432Z,18.20
2023-03-19T14:11:36.706Z,18.60
2023-03-19T14:14:07.235Z,16.25
2023-03-19T14:16:37.646Z,16.40
2023-03-19T14:19:11.561Z,16.38
2023-03-19T14:21:47.267Z,16.45
2023-03-19T14:24:56.452Z,14.40
2023-03-19T14:27:27.447Z,12.63
2023-03-19T14:29:56.877Z,10.93
2023-03-19T14:32:34.450Z,12.68
2023-03-19T14:35:06.190Z,13.35
2023-03-19T14:40:17.206Z,12.68
2023-03-19T14:42:47.020Z,11.82
2023-03-19T14:45:14.602Z,12.20
2023-03-19T14:48:07.070Z,11.00
2023-03-19T14:50:48.823Z,11.65
2023-03-19T14:55:42.910Z,11.32
2023-03-19T14:58:12.961Z,11.90
2023-03-19T15:00:50.089Z,11.23
2023-03-19T15:03:31.562Z,10.88
2023-03-19T15:06:01.419Z,11.43
2023-03-19T15:08:31.416Z,11.38
2023-03-19T15:11:10.523Z,12.60
2023-03-19T15:14:12.465Z,13.98
2023-03-19T15:17:28.336Z,14.57
2023-03-19T15:19:58.348Z,15.52
2023-03-19T15:22:34.669Z,15.07
2023-03-19T15:25:09.665Z,12.75
2023-03-19T15:27:36.684Z,11.77
2023-03-19T15:30:19.235Z,12.00
2023-03-19T15:32:56.679Z,11.43
2023-03-19T15:35:35.970Z,12.20
2023-03-19T15:38:09.223Z,12.95
2023-03-19T15:40:36.913Z,12.27
2023-03-19T15:43:04.510Z,13.75
2023-03-19T15:45:33.820Z,12.60
2023-03-19T15:48:00.684Z,13.20
2023-03-19T15:50:31.287Z,14.00
2023-03-19T15:53:19.864Z,14.55
2023-03-19T15:55:49.861Z,14.38
2023-03-19T15:58:27.976Z,15.88
2023-03-19T16:00:55.669Z,15.45
2023-03-19T16:03:37.814Z,18.40
2023-03-19T16:06:16.340Z,18.75
2023-03-19T16:08:53.215Z,20.63
2023-03-19T16:11:46.640Z,18.35
2023-03-19T16:14:24.860Z,18.27
2023-03-19T16:16:53.560Z,17.58
2023-03-19T16:19:52.003Z,17.30
2023-03-19T16:22:29.590Z,15.85
2023-03-19T16:24:57.276Z,16.75
2023-03-19T16:27:39.507Z,17.45
2023-03-19T16:30:26.835Z,17.65
2023-03-19T16:33:03.312Z,17.50
2023-03-19T16:35:33.337Z,18.48
2023-03-19T16:38:12.726Z,18.63
2023-03-19T16:40:42.987Z,19.90
2023-03-19T16:43:43.992Z,19.40
2023-03-19T16:46:12.863Z,20.25
2023-03-19T16:48:42.837Z,20.92
2023-03-19T16:51:21.246Z,21.05
2023-03-19T16:53:49.104Z,19.85
2023-03-19T16:56:16.473Z,20.13
2023-03-19T16:58:44.791Z,19.10
2023-03-19T17:01:16.624Z,20.90
2023-03-19T17:03:45.837Z,18.38
2023-03-19T17:06:14.147Z,19.10
2023-03-19T17:08:41.336Z,15.10
2023-03-19T17:11:39.842Z,17.02
2023-03-19T17:14:12.262Z,16.33
2023-03-19T17:16:39.006Z,15.65
2023-03-19T17:19:18.332Z,11.60
2023-03-19T17:21:46.405Z,10.60
2023-03-19T17:24:22.298Z,9.65
2023-03-19T17:26:49.329Z,9.45
2023-03-19T17:29:16.074Z,9.57
2023-03-19T17:31:42.963Z,9.52
2023-03-19T17:34:21.552Z,8.65
2023-03-19T17:36:56.830Z,9.00
2023-03-19T17:39:24.168Z,9.35
2023-03-19T17:41:51.419Z,9.60
2023-03-19T17:44:18.167Z,9.10
2023-03-19T17:46:48.510Z,9.20
2023-03-19T17:49:21.947Z,8.98
2023-03-19T17:51:48.982Z,9.82
2023-03-19T17:54:15.734Z,9.38
2023-03-19T17:56:43.479Z,10.07
2023-03-19T17:59:10.846Z,9.43
2023-03-19T18:01:38.628Z,8.95
2023-03-19T18:04:05.719Z,9.45
2023-03-19T18:06:35.667Z,9.80
2023-03-19T18:09:02.978Z,8.43
2023-03-19T18:11:29.803Z,9.10
2023-03-19T18:13:56.614Z,8.55
2023-03-19T18:16:29.885Z,9.73
2023-03-19T18:18:59.791Z,10.80
2023-03-19T18:21:30.298Z,9.75
2023-03-19T18:23:57.398Z,9.38
2023-03-19T18:26:25.410Z,9.98
2023-03-19T18:28:52.364Z,10.52
2023-03-19T18:31:23.304Z,11.73
2023-03-19T18:33:54.156Z,10.77
2023-03-19T18:36:26.839Z,10.97
2023-03-19T18:38:55.106Z,9.77
2023-03-19T18:41:24.779Z,8.25
2023-03-19T18:43:51.593Z,8.18
2023-03-19T18:46:23.191Z,8.65
2023-03-19T18:51:16.706Z,8.93
2023-03-19T18:53:43.543Z,8.48
2023-03-19T18:56:19.258Z,8.02
2023-03-19T18:58:46.887Z,7.60
2023-03-19T19:01:16.514Z,6.65
2023-03-19T19:03:45.569Z,6.45
2023-03-19T19:06:40.264Z,6.35
2023-03-19T19:09:13.244Z,6.85
2023-03-19T19:11:41.618Z,5.43
2023-03-19T19:14:18.100Z,7.10
2023-03-19T19:16:45.055Z,6.70
2023-03-19T19:19:23.984Z,6.65
2023-03-19T19:21:51.760Z,5.47
2023-03-19T19:24:18.547Z,5.43
2023-03-19T19:26:46.785Z,5.10
2023-03-19T19:29:25.312Z,5.20
2023-03-19T19:31:53.426Z,5.95
2023-03-19T19:34:20.860Z,6.25
2023-03-19T19:36:47.835Z,6.80
2023-03-19T19:39:14.579Z,6.47
2023-03-19T19:41:43.612Z,6.57
2023-03-19T19:44:21.369Z,7.03
2023-03-19T19:46:48.484Z,6.97
2023-03-19T19:49:15.555Z,7.28
2023-03-19T19:51:42.299Z,7.57
2023-03-19T19:54:09.137Z,6.80
2023-03-19T19:56:37.327Z,6.97
2023-03-19T19:59:07.689Z,7.03
2023-03-19T20:01:35.522Z,6.75
2023-03-19T20:04:03.990Z,6.72
2023-03-19T20:06:30.839Z,6.25
2023-03-19T20:08:57.831Z,7.03
2023-03-19T20:11:25.691Z,7.97
2023-03-19T20:13:55.571Z,7.45
2023-03-19T20:16:24.982Z,7.57
2023-03-19T20:18:55.116Z,7.70
2023-03-19T20:21:22.718Z,7.22
2023-03-19T20:23:52.892Z,6.90
2023-03-19T20:26:22.437Z,6.78
2023-03-19T20:28:50.628Z,7.18
2023-03-19T20:31:29.806Z,6.65
2023-03-19T20:33:57.576Z,7.13
2023-03-19T20:36:24.339Z,6.80
2023-03-19T20:38:52.395Z,6.63
2023-03-19T20:41:22.223Z,6.88
2023-03-19T20:43:50.451Z,7.38
2023-03-19T20:46:20.248Z,7.57
2023-03-19T20:48:48.079Z,7.00
2023-03-19T20:51:21.532Z,6.50
2023-03-19T20:53:49.768Z,7.00
2023-03-19T20:56:18.614Z,6.25
2023-03-19T20:58:46.489Z,6.93
2023-03-19T21:01:15.623Z,6.45
2023-03-19T21:03:43.654Z,7.55
2023-03-19T21:06:18.568Z,7.88
2023-03-19T21:08:48.352Z,8.23
2023-03-19T21:11:20.607Z,8.00
2023-03-19T21:13:48.948Z,8.88
2023-03-19T21:16:18.358Z,10.25
2023-03-19T21:18:45.893Z,9.18
2023-03-19T21:21:15.881Z,10.13
2023-03-19T21:23:58.208Z,9.68
2023-03-19T21:26:26.041Z,9.75
2023-03-19T21:28:59.220Z,10.30
2023-03-19T21:31:27.031Z,10.75
2023-03-19T21:33:55.859Z,10.18
2023-03-19T21:36:23.798Z,11.27
2023-03-19T21:38:52.488Z,11.27
2023-03-19T21:41:31.820Z,11.93
2023-03-19T21:44:02.341Z,13.85
2023-03-19T21:46:31.498Z,14.23
2023-03-19T21:48:59.447Z,14.20
2023-03-19T21:51:28.626Z,15.45
2023-03-19T21:53:55.506Z,15.35
2023-03-19T21:56:25.029Z,15.25
2023-03-19T21:58:52.915Z,15.18
2023-03-19T22:01:24.568Z,15.27
2023-03-19T22:06:19.345Z,13.68
2023-03-19T22:08:48.233Z,13.73
2023-03-19T22:11:31.391Z,12.85
2023-03-19T22:14:04.527Z,12.40
2023-03-19T22:16:32.291Z,12.20
2023-03-19T22:18:59.406Z,12.02
2023-03-19T22:21:26.195Z,11.20
2023-03-19T22:23:52.984Z,11.00
2023-03-19T22:26:41.047Z,10.98
2023-03-19T22:29:18.643Z,9.85
2023-03-19T22:31:48.083Z,9.70
2023-03-19T22:34:16.898Z,9.40
2023-03-19T22:36:43.804Z,9.20
2023-03-19T22:39:10.589Z,8.40
2023-03-19T22:41:40.023Z,8.13
2023-03-19T22:44:16.489Z,8.45
2023-03-19T22:46:43.312Z,8.45
2023-03-19T22:49:15.355Z,8.43
2023-03-19T22:51:42.122Z,8.30
2023-03-19T22:54:11.095Z,8.50
2023-03-19T22:56:37.913Z,8.73
2023-03-19T22:59:05.120Z,8.35
2023-03-19T23:01:34.649Z,8.15
2023-03-19T23:04:23.366Z,9.02
2023-03-19T23:06:51.837Z,9.45
2023-03-19T23:09:27.043Z,10.07
2023-03-19T23:11:54.369Z,9.55
2023-03-19T23:14:31.173Z,10.95
2023-03-19T23:17:06.980Z,10.13
2023-03-19T23:19:36.510Z,10.70
2023-03-19T23:22:05.854Z,11.43
2023-03-19T23:24:33.695Z,11.40
2023-03-19T23:27:01.356Z,11.38
2023-03-19T23:29:37.042Z,11.52
2023-03-19T23:32:04.944Z,11.27
2023-03-19T23:34:35.346Z,11.20
2023-03-19T23:37:06.972Z,10.48
2023-03-19T23:39:33.661Z,11.07
2023-03-19T23:42:00.597Z,10.73
2023-03-19T23:44:29.194Z,11.30
2023-03-19T23:46:59.708Z,10.98
2023-03-19T23:49:32.353Z,11.95
2023-03-19T23:52:00.254Z,11.13
2023-03-19T23:54:36.911Z,11.35
2023-03-19T23:57:07.616Z,12.00
2023-03-19T23:59:38.062Z,11.55
